sensor_id;sensor_type;location;lat;lon;timestamp;temperature;humidity
86242;DHT22;76911;51.784;4.658;2024-02-26T13:12:48;22.32;47.59
86242;DHT22;76911;51.784;4.658;2024-02-26T13:15:20;22.32;47.60
86242;DHT22;76911;51.784;4.658;2024-02-26T13:17:48;22.29;47.48
86242;DHT22;76911;51.784;4.658;2024-02-26T13:20:28;22.31;47.79
86242;DHT22;76911;51.784;4.658;2024-02-26T13:23:01;22.31;47.89
86242;DHT22;76911;51.784;4.658;2024-02-26T13:25:27;22.31;48.10
86242;DHT22;76911;51.784;4.658;2024-02-26T13:31:39;13.30;57.39
86242;DHT22;76911;51.784;4.658;2024-02-26T13:34:07;10.04;67.17
86242;DHT22;76911;51.784;4.658;2024-02-26T13:36:33;8.80;73.16
86242;DHT22;76911;51.784;4.658;2024-02-26T13:38:58;7.92;75.05
86242;DHT22;76911;51.784;4.658;2024-02-26T13:41:25;7.49;78.82
86242;DHT22;76911;51.784;4.658;2024-02-26T13:43:51;7.26;78.64
86242;DHT22;76911;51.784;4.658;2024-02-26T13:46:17;7.06;80.47
86242;DHT22;76911;51.784;4.658;2024-02-26T13:48:42;6.99;80.48
86242;DHT22;76911;51.784;4.658;2024-02-26T13:51:09;7.03;80.89
86242;DHT22;76911;51.784;4.658;2024-02-26T13:53:35;7.06;80.66
86242;DHT22;76911;51.784;4.658;2024-02-26T13:56:01;7.06;80.53
86242;DHT22;76911;51.784;4.658;2024-02-26T13:58:27;6.91;81.24
86242;DHT22;76911;51.784;4.658;2024-02-26T14:00:53;6.95;82.26
86242;DHT22;76911;51.784;4.658;2024-02-26T14:03:20;7.02;80.89
86242;DHT22;76911;51.784;4.658;2024-02-26T14:05:45;6.98;80.27
86242;DHT22;76911;51.784;4.658;2024-02-26T14:08:11;6.89;80.50
86242;DHT22;76911;51.784;4.658;2024-02-26T14:10:36;6.87;81.41
86242;DHT22;76911;51.784;4.658;2024-02-26T14:13:03;6.93;81.71
86242;DHT22;76911;51.784;4.658;2024-02-26T14:15:28;7.02;79.84
86242;DHT22;76911;51.784;4.658;2024-02-26T14:17:55;6.93;82.35
86242;DHT22;76911;51.784;4.658;2024-02-26T14:20:25;7.03;82.18
86242;DHT22;76911;51.784;4.658;2024-02-26T14:22:51;6.99;81.34
86242;DHT22;76911;51.784;4.658;2024-02-26T14:25:21;7.03;80.38
86242;DHT22;76911;51.784;4.658;2024-02-26T14:27:47;6.93;79.93
86242;DHT22;76911;51.784;4.658;2024-02-26T14:30:13;7.01;81.91
86242;DHT22;76911;51.784;4.658;2024-02-26T14:32:40;7.03;81.56
86242;DHT22;76911;51.784;4.658;2024-02-26T14:35:06;7.03;80.65
86242;DHT22;76911;51.784;4.658;2024-02-26T14:37:33;7.10;80.14
86242;DHT22;76911;51.784;4.658;2024-02-26T14:39:58;7.06;81.04
86242;DHT22;76911;51.784;4.658;2024-02-26T14:42:24;7.12;80.21
86242;DHT22;76911;51.784;4.658;2024-02-26T14:44:50;7.06;80.07
86242;DHT22;76911;51.784;4.658;2024-02-26T14:47:16;7.05;81.72
86242;DHT22;76911;51.784;4.658;2024-02-26T14:49:42;7.10;79.58
86242;DHT22;76911;51.784;4.658;2024-02-26T14:52:08;7.06;81.26
86242;DHT22;76911;51.784;4.658;2024-02-26T14:54:33;7.09;79.38
86242;DHT22;76911;51.784;4.658;2024-02-26T14:57:05;7.16;79.19
86242;DHT22;76911;51.784;4.658;2024-02-26T14:59:32;7.16;78.40
86242;DHT22;76911;51.784;4.658;2024-02-26T15:01:58;7.09;80.86
86242;DHT22;76911;51.784;4.658;2024-02-26T15:04:26;7.16;79.42
86242;DHT22;76911;51.784;4.658;2024-02-26T15:06:52;7.19;77.98
86242;DHT22;76911;51.784;4.658;2024-02-26T15:09:18;7.06;79.62
86242;DHT22;76911;51.784;4.658;2024-02-26T15:11:43;7.23;78.40
86242;DHT22;76911;51.784;4.658;2024-02-26T15:14:10;7.19;79.76
86242;DHT22;76911;51.784;4.658;2024-02-26T15:16:36;7.20;78.88
86242;DHT22;76911;51.784;4.658;2024-02-26T15:19:02;7.36;77.42
86242;DHT22;76911;51.784;4.658;2024-02-26T15:21:28;7.31;77.96
86242;DHT22;76911;51.784;4.658;2024-02-26T15:23:54;7.33;78.34
86242;DHT22;76911;51.784;4.658;2024-02-26T15:26:20;7.42;78.26
86242;DHT22;76911;51.784;4.658;2024-02-26T15:28:46;7.49;77.01
86242;DHT22;76911;51.784;4.658;2024-02-26T15:31:11;7.37;79.06
86242;DHT22;76911;51.784;4.658;2024-02-26T15:33:37;7.44;78.45
86242;DHT22;76911;51.784;4.658;2024-02-26T15:36:03;7.50;77.57
86242;DHT22;76911;51.784;4.658;2024-02-26T15:38:29;7.43;77.79
86242;DHT22;76911;51.784;4.658;2024-02-26T15:40:55;7.37;78.69
86242;DHT22;76911;51.784;4.658;2024-02-26T15:43:20;7.31;76.39
86242;DHT22;76911;51.784;4.658;2024-02-26T15:45:47;7.31;77.30
86242;DHT22;76911;51.784;4.658;2024-02-26T15:48:13;7.33;76.62
86242;DHT22;76911;51.784;4.658;2024-02-26T15:50:39;7.26;77.37
86242;DHT22;76911;51.784;4.658;2024-02-26T15:53:06;7.33;77.71
86242;DHT22;76911;51.784;4.658;2024-02-26T15:55:32;7.33;77.70
86242;DHT22;76911;51.784;4.658;2024-02-26T15:57:57;7.37;77.20
86242;DHT22;76911;51.784;4.658;2024-02-26T16:00:23;7.42;78.49
86242;DHT22;76911;51.784;4.658;2024-02-26T16:02:48;7.36;78.07
86242;DHT22;76911;51.784;4.658;2024-02-26T16:05:15;7.42;78.55
86242;DHT22;76911;51.784;4.658;2024-02-26T16:07:46;7.43;77.83
86242;DHT22;76911;51.784;4.658;2024-02-26T16:10:15;7.36;78.45
86242;DHT22;76911;51.784;4.658;2024-02-26T16:12:44;7.33;77.71
86242;DHT22;76911;51.784;4.658;2024-02-26T16:15:09;7.30;76.39
86242;DHT22;76911;51.784;4.658;2024-02-26T16:17:42;7.34;75.96
86242;DHT22;76911;51.784;4.658;2024-02-26T16:20:15;7.26;76.42
86242;DHT22;76911;51.784;4.658;2024-02-26T16:22:44;7.22;76.80
86242;DHT22;76911;51.784;4.658;2024-02-26T16:25:09;7.15;77.34
86242;DHT22;76911;51.784;4.658;2024-02-26T16:27:35;7.20;77.37
86242;DHT22;76911;51.784;4.658;2024-02-26T16:30:04;7.12;78.69
86242;DHT22;76911;51.784;4.658;2024-02-26T16:32:34;7.02;78.37
86242;DHT22;76911;51.784;4.658;2024-02-26T16:35:01;6.99;78.75
86242;DHT22;76911;51.784;4.658;2024-02-26T16:37:27;7.08;77.90
86242;DHT22;76911;51.784;4.658;2024-02-26T16:39:53;7.02;78.95
86242;DHT22;76911;51.784;4.658;2024-02-26T16:42:19;7.02;77.69
86242;DHT22;76911;51.784;4.658;2024-02-26T16:44:45;6.93;78.33
86242;DHT22;76911;51.784;4.658;2024-02-26T16:47:10;6.88;78.19
86242;DHT22;76911;51.784;4.658;2024-02-26T16:49:36;6.77;78.50
86242;DHT22;76911;51.784;4.658;2024-02-26T16:52:02;6.71;78.26
86242;DHT22;76911;51.784;4.658;2024-02-26T16:54:28;6.67;79.02
86242;DHT22;76911;51.784;4.658;2024-02-26T16:56:54;6.60;78.44
86242;DHT22;76911;51.784;4.658;2024-02-26T16:59:19;6.58;78.95
86242;DHT22;76911;51.784;4.658;2024-02-26T17:01:46;6.64;79.08
86242;DHT22;76911;51.784;4.658;2024-02-26T17:04:12;6.67;78.14
86242;DHT22;76911;51.784;4.658;2024-02-26T17:06:38;6.65;78.37
86242;DHT22;76911;51.784;4.658;2024-02-26T17:09:03;6.58;78.51
86242;DHT22;76911;51.784;4.658;2024-02-26T17:11:36;6.57;78.37
86242;DHT22;76911;51.784;4.658;2024-02-26T17:14:04;6.47;79.22
86242;DHT22;76911;51.784;4.658;2024-02-26T17:16:30;6.54;78.43
86242;DHT22;76911;51.784;4.658;2024-02-26T17:18:56;6.57;77.97
86242;DHT22;76911;51.784;4.658;2024-02-26T17:21:24;6.45;78.53
86242;DHT22;76911;51.784;4.658;2024-02-26T17:23:50;6.50;79.04
86242;DHT22;76911;51.784;4.658;2024-02-26T17:26:20;6.57;77.79
86242;DHT22;76911;51.784;4.658;2024-02-26T17:28:45;6.55;78.06
86242;DHT22;76911;51.784;4.658;2024-02-26T17:31:14;6.54;77.72
86242;DHT22;76911;51.784;4.658;2024-02-26T17:33:41;6.45;78.05
86242;DHT22;76911;51.784;4.658;2024-02-26T17:36:07;6.41;77.64
86242;DHT22;76911;51.784;4.658;2024-02-26T17:38:36;6.43;77.81
86242;DHT22;76911;51.784;4.658;2024-02-26T17:41:02;6.38;77.47
86242;DHT22;76911;51.784;4.658;2024-02-26T17:43:28;6.41;78.24
86242;DHT22;76911;51.784;4.658;2024-02-26T17:45:54;6.45;77.17
86242;DHT22;76911;51.784;4.658;2024-02-26T17:48:19;6.36;77.55
86242;DHT22;76911;51.784;4.658;2024-02-26T17:50:45;6.27;78.90
86242;DHT22;76911;51.784;4.658;2024-02-26T17:53:10;6.34;78.67
86242;DHT22;76911;51.784;4.658;2024-02-26T17:55:38;6.37;78.12
86242;DHT22;76911;51.784;4.658;2024-02-26T17:58:04;6.33;78.05
86242;DHT22;76911;51.784;4.658;2024-02-26T18:00:29;6.40;77.64
86242;DHT22;76911;51.784;4.658;2024-02-26T18:02:57;6.34;78.10
86242;DHT22;76911;51.784;4.658;2024-02-26T18:05:23;6.30;78.02
86242;DHT22;76911;51.784;4.658;2024-02-26T18:07:48;6.31;77.93
86242;DHT22;76911;51.784;4.658;2024-02-26T18:10:14;6.26;77.62
86242;DHT22;76911;51.784;4.658;2024-02-26T18:12:40;6.29;77.57
86242;DHT22;76911;51.784;4.658;2024-02-26T18:15:06;6.41;77.07
86242;DHT22;76911;51.784;4.658;2024-02-26T18:17:35;6.34;77.56
86242;DHT22;76911;51.784;4.658;2024-02-26T18:20:02;6.37;77.29
86242;DHT22;76911;51.784;4.658;2024-02-26T18:22:30;6.34;77.67
86242;DHT22;76911;51.784;4.658;2024-02-26T18:24:56;6.38;77.53
86242;DHT22;76911;51.784;4.658;2024-02-26T18:27:21;6.34;77.54
86242;DHT22;76911;51.784;4.658;2024-02-26T18:29:47;6.27;78.03
86242;DHT22;76911;51.784;4.658;2024-02-26T18:32:12;6.26;77.68
86242;DHT22;76911;51.784;4.658;2024-02-26T18:34:38;6.23;78.15
86242;DHT22;76911;51.784;4.658;2024-02-26T18:37:04;6.23;77.91
86242;DHT22;76911;51.784;4.658;2024-02-26T18:39:30;6.24;77.84
86242;DHT22;76911;51.784;4.658;2024-02-26T18:41:55;6.24;78.07
86242;DHT22;76911;51.784;4.658;2024-02-26T18:44:23;6.19;78.59
86242;DHT22;76911;51.784;4.658;2024-02-26T18:46:49;6.20;78.23
86242;DHT22;76911;51.784;4.658;2024-02-26T18:49:15;6.23;77.54
86242;DHT22;76911;51.784;4.658;2024-02-26T18:51:41;6.20;77.62
86242;DHT22;76911;51.784;4.658;2024-02-26T18:54:07;6.17;77.54
86242;DHT22;76911;51.784;4.658;2024-02-26T18:56:34;6.14;77.34
86242;DHT22;76911;51.784;4.658;2024-02-26T18:59:00;6.16;76.89
86242;DHT22;76911;51.784;4.658;2024-02-26T19:01:26;6.06;76.80
86242;DHT22;76911;51.784;4.658;2024-02-26T19:03:51;6.09;76.84
86242;DHT22;76911;51.784;4.658;2024-02-26T19:06:17;6.10;76.90
86242;DHT22;76911;51.784;4.658;2024-02-26T19:08:42;6.03;76.67
86242;DHT22;76911;51.784;4.658;2024-02-26T19:11:09;5.96;77.00
86242;DHT22;76911;51.784;4.658;2024-02-26T19:13:34;5.98;77.32
86242;DHT22;76911;51.784;4.658;2024-02-26T19:16:00;5.99;77.35
86242;DHT22;76911;51.784;4.658;2024-02-26T19:18:26;5.96;77.38
86242;DHT22;76911;51.784;4.658;2024-02-26T19:20:51;6.10;77.35
86242;DHT22;76911;51.784;4.658;2024-02-26T19:23:17;6.16;76.35
86242;DHT22;76911;51.784;4.658;2024-02-26T19:25:42;6.19;76.61
86242;DHT22;76911;51.784;4.658;2024-02-26T19:28:08;6.13;77.11
86242;DHT22;76911;51.784;4.658;2024-02-26T19:30:34;6.05;78.09
86242;DHT22;76911;51.784;4.658;2024-02-26T19:32:59;6.12;77.63
86242;DHT22;76911;51.784;4.658;2024-02-26T19:35:25;6.12;77.81
86242;DHT22;76911;51.784;4.658;2024-02-26T19:37:50;6.10;77.74
86242;DHT22;76911;51.784;4.658;2024-02-26T19:40:16;6.14;77.59
86242;DHT22;76911;51.784;4.658;2024-02-26T19:42:42;6.09;77.71
86242;DHT22;76911;51.784;4.658;2024-02-26T19:45:08;6.12;77.98
86242;DHT22;76911;51.784;4.658;2024-02-26T19:47:38;6.14;77.52
86242;DHT22;76911;51.784;4.658;2024-02-26T19:50:05;6.09;78.09
86242;DHT22;76911;51.784;4.658;2024-02-26T19:52:30;6.13;77.83
86242;DHT22;76911;51.784;4.658;2024-02-26T19:54:56;6.19;77.24
86242;DHT22;76911;51.784;4.658;2024-02-26T19:57:21;6.03;77.86
86242;DHT22;76911;51.784;4.658;2024-02-26T19:59:47;6.14;77.63
86242;DHT22;76911;51.784;4.658;2024-02-26T20:02:12;6.16;77.34
86242;DHT22;76911;51.784;4.658;2024-02-26T20:04:38;6.16;77.03
86242;DHT22;76911;51.784;4.658;2024-02-26T20:07:03;6.17;76.94
86242;DHT22;76911;51.784;4.658;2024-02-26T20:09:31;6.19;76.73
86242;DHT22;76911;51.784;4.658;2024-02-26T20:11:58;6.16;76.68
86242;DHT22;76911;51.784;4.658;2024-02-26T20:14:25;6.17;76.39
86242;DHT22;76911;51.784;4.658;2024-02-26T20:16:51;6.12;76.29
86242;DHT22;76911;51.784;4.658;2024-02-26T20:19:16;6.03;76.40
86242;DHT22;76911;51.784;4.658;2024-02-26T20:21:43;6.07;76.66
86242;DHT22;76911;51.784;4.658;2024-02-26T20:24:09;6.10;76.00
86242;DHT22;76911;51.784;4.658;2024-02-26T20:26:35;6.09;76.58
86242;DHT22;76911;51.784;4.658;2024-02-26T20:29:01;6.10;76.70
86242;DHT22;76911;51.784;4.658;2024-02-26T20:31:26;6.07;76.66
86242;DHT22;76911;51.784;4.658;2024-02-26T20:33:52;6.03;77.21
86242;DHT22;76911;51.784;4.658;2024-02-26T20:36:17;6.03;77.03
86242;DHT22;76911;51.784;4.658;2024-02-26T20:38:43;6.06;77.04
86242;DHT22;76911;51.784;4.658;2024-02-26T20:41:09;5.99;76.52
86242;DHT22;76911;51.784;4.658;2024-02-26T20:43:34;5.96;76.88
86242;DHT22;76911;51.784;4.658;2024-02-26T20:46:01;5.96;77.04
86242;DHT22;76911;51.784;4.658;2024-02-26T20:48:26;5.98;77.12
86242;DHT22;76911;51.784;4.658;2024-02-26T20:50:52;5.95;77.55
86242;DHT22;76911;51.784;4.658;2024-02-26T20:53:17;6.02;76.50
86242;DHT22;76911;51.784;4.658;2024-02-26T20:55:43;5.95;76.67
86242;DHT22;76911;51.784;4.658;2024-02-26T20:58:09;6.01;76.47
86242;DHT22;76911;51.784;4.658;2024-02-26T21:00:35;5.98;76.85
86242;DHT22;76911;51.784;4.658;2024-02-26T21:03:01;6.05;76.54
86242;DHT22;76911;51.784;4.658;2024-02-26T21:05:36;6.03;76.67
86242;DHT22;76911;51.784;4.658;2024-02-26T21:08:03;5.95;77.03
86242;DHT22;76911;51.784;4.658;2024-02-26T21:10:29;5.96;76.58
86242;DHT22;76911;51.784;4.658;2024-02-26T21:12:57;6.01;76.49
86242;DHT22;76911;51.784;4.658;2024-02-26T21:15:23;5.89;76.79
86242;DHT22;76911;51.784;4.658;2024-02-26T21:17:48;5.91;76.71
86242;DHT22;76911;51.784;4.658;2024-02-26T21:20:16;5.93;76.74
86242;DHT22;76911;51.784;4.658;2024-02-26T21:22:47;5.86;77.00
86242;DHT22;76911;51.784;4.658;2024-02-26T21:25:13;5.85;77.00
86242;DHT22;76911;51.784;4.658;2024-02-26T21:27:39;5.91;76.66
86242;DHT22;76911;51.784;4.658;2024-02-26T21:30:05;5.93;76.47
86242;DHT22;76911;51.784;4.658;2024-02-26T21:32:31;5.88;77.14
86242;DHT22;76911;51.784;4.658;2024-02-26T21:34:59;5.89;76.57
86242;DHT22;76911;51.784;4.658;2024-02-26T21:37:25;5.86;76.59
86242;DHT22;76911;51.784;4.658;2024-02-26T21:39:50;5.78;76.99
86242;DHT22;76911;51.784;4.658;2024-02-26T21:42:15;5.79;76.98
86242;DHT22;76911;51.784;4.658;2024-02-26T21:44:41;5.73;76.60
86242;DHT22;76911;51.784;4.658;2024-02-26T21:47:06;5.71;76.57
86242;DHT22;76911;51.784;4.658;2024-02-26T21:49:32;5.71;77.04
86242;DHT22;76911;51.784;4.658;2024-02-26T21:51:58;5.76;76.55
86242;DHT22;76911;51.784;4.658;2024-02-26T21:54:26;5.69;76.15
86242;DHT22;76911;51.784;4.658;2024-02-26T21:56:52;5.69;76.16
86242;DHT22;76911;51.784;4.658;2024-02-26T21:59:17;5.66;76.11
86242;DHT22;76911;51.784;4.658;2024-02-26T22:01:43;5.56;77.10
86242;DHT22;76911;51.784;4.658;2024-02-26T22:04:09;5.56;76.73
86242;DHT22;76911;51.784;4.658;2024-02-26T22:06:35;5.65;76.70
86242;DHT22;76911;51.784;4.658;2024-02-26T22:09:02;5.65;76.62
86242;DHT22;76911;51.784;4.658;2024-02-26T22:11:27;5.73;76.55
86242;DHT22;76911;51.784;4.658;2024-02-26T22:13:53;5.75;76.27
86242;DHT22;76911;51.784;4.658;2024-02-26T22:16:18;5.82;76.00
86242;DHT22;76911;51.784;4.658;2024-02-26T22:18:44;5.83;75.43
86242;DHT22;76911;51.784;4.658;2024-02-26T22:21:11;5.85;76.04
86242;DHT22;76911;51.784;4.658;2024-02-26T22:23:37;5.83;75.82
86242;DHT22;76911;51.784;4.658;2024-02-26T22:26:03;5.78;75.29
86242;DHT22;76911;51.784;4.658;2024-02-26T22:28:29;5.72;76.25
86242;DHT22;76911;51.784;4.658;2024-02-26T22:30:54;5.76;75.43
86242;DHT22;76911;51.784;4.658;2024-02-26T22:33:20;5.82;75.72
86242;DHT22;76911;51.784;4.658;2024-02-26T22:35:45;5.89;75.46
86242;DHT22;76911;51.784;4.658;2024-02-26T22:38:11;5.86;75.49
86242;DHT22;76911;51.784;4.658;2024-02-26T22:40:37;5.83;75.72
86242;DHT22;76911;51.784;4.658;2024-02-26T22:43:03;5.91;75.49
86242;DHT22;76911;51.784;4.658;2024-02-26T22:45:29;5.88;75.24
86242;DHT22;76911;51.784;4.658;2024-02-26T22:47:55;5.91;75.20
86242;DHT22;76911;51.784;4.658;2024-02-26T22:50:20;5.86;75.09
86242;DHT22;76911;51.784;4.658;2024-02-26T22:52:46;5.85;75.46
86242;DHT22;76911;51.784;4.658;2024-02-26T22:55:12;5.82;75.79
86242;DHT22;76911;51.784;4.658;2024-02-26T22:57:38;5.96;74.71
86242;DHT22;76911;51.784;4.658;2024-02-26T23:00:03;5.82;75.32
86242;DHT22;76911;51.784;4.658;2024-02-26T23:02:45;5.81;76.13
86242;DHT22;76911;51.784;4.658;2024-02-26T23:05:12;5.91;75.10
86242;DHT22;76911;51.784;4.658;2024-02-26T23:07:38;5.88;74.82
86242;DHT22;76911;51.784;4.658;2024-02-26T23:10:04;5.86;75.21
86242;DHT22;76911;51.784;4.658;2024-02-26T23:12:29;5.92;75.21
86242;DHT22;76911;51.784;4.658;2024-02-26T23:14:55;5.96;74.90
86242;DHT22;76911;51.784;4.658;2024-02-26T23:17:20;5.91;75.54
86242;DHT22;76911;51.784;4.658;2024-02-26T23:19:46;5.91;75.40
86242;DHT22;76911;51.784;4.658;2024-02-26T23:22:11;5.95;75.14
86242;DHT22;76911;51.784;4.658;2024-02-26T23:24:37;5.92;75.07
86242;DHT22;76911;51.784;4.658;2024-02-26T23:27:02;5.86;76.06
86242;DHT22;76911;51.784;4.658;2024-02-26T23:29:28;5.93;75.59
86242;DHT22;76911;51.784;4.658;2024-02-26T23:31:53;5.89;75.89
86242;DHT22;76911;51.784;4.658;2024-02-26T23:34:20;5.83;75.60
86242;DHT22;76911;51.784;4.658;2024-02-26T23:36:45;5.88;75.69
86242;DHT22;76911;51.784;4.658;2024-02-26T23:39:11;5.85;76.00
86242;DHT22;76911;51.784;4.658;2024-02-26T23:41:36;5.85;76.27
86242;DHT22;76911;51.784;4.658;2024-02-26T23:44:02;5.91;75.78
86242;DHT22;76911;51.784;4.658;2024-02-26T23:46:34;5.86;74.93
86242;DHT22;76911;51.784;4.658;2024-02-26T23:49:01;5.86;75.78
86242;DHT22;76911;51.784;4.658;2024-02-26T23:51:26;5.85;75.49
86242;DHT22;76911;51.784;4.658;2024-02-26T23:53:52;5.79;75.49
86242;DHT22;76911;51.784;4.658;2024-02-26T23:56:17;5.81;75.72
86242;DHT22;76911;51.784;4.658;2024-02-26T23:58:44;5.79;75.69
